Time;durP1;ratioP1;P1;durP2;ratioP2;P2;SDS_P1;SDS_P2;PMS_P1;PMS_P2;Temp;Humidity;BMP_temperature;BMP_pressure;BME280_temperature;BME280_humidity;BME280_pressure;Samples;Min_cycle;Max_cycle;Signal;HPM_P1;HPM_P2
2023/05/18 00:03:35;;;;;;;5.20;2.70;;;;;;;8.50;64.60;100623.63;217878;1259;139418;-66
2023/05/18 00:08:41;;;;;;;4.10;1.40;;;;;;;8.46;64.87;100626.91;217705;1257;141514;-66
2023/05/18 00:13:48;;;;;;;7.10;1.70;;;;;;;8.40;65.26;100626.73;218603;1257;140995;-66
2023/05/18 00:18:53;;;;;;;5.80;2.00;;;;;;;8.37;65.10;100629.17;218095;1259;140454;-65
2023/05/18 00:23:57;;;;;;;8.40;1.90;;;;;;;8.36;65.25;100627.08;217902;1259;139440;-65
2023/05/18 00:29:01;;;;;;;5.60;1.90;;;;;;;8.32;65.55;100622.80;218720;1256;141474;-66
2023/05/18 00:34:07;;;;;;;11.90;2.60;;;;;;;8.29;65.43;100630.94;218995;1259;151642;-66
2023/05/18 00:39:12;;;;;;;6.00;2.50;;;;;;;8.26;65.31;100633.10;218516;1257;141156;-67
2023/05/18 00:44:17;;;;;;;4.70;2.10;;;;;;;8.24;65.67;100631.30;219157;1256;141206;-68
2023/05/18 00:49:21;;;;;;;3.10;1.60;;;;;;;8.22;65.52;100629.08;219491;1259;142212;-68
2023/05/18 00:54:25;;;;;;;3.90;1.80;;;;;;;8.22;65.95;100636.52;219873;1256;139426;-68
2023/05/18 00:59:31;;;;;;;9.90;2.20;;;;;;;8.23;65.77;100640.45;219682;1255;139394;-66
2023/05/18 01:04:36;;;;;;;2.50;1.70;;;;;;;8.22;66.15;100643.23;220601;1256;139443;-67
2023/05/18 01:09:41;;;;;;;5.40;1.90;;;;;;;8.24;66.22;100648.14;220421;1256;139950;-66
2023/05/18 01:14:57;;;;;;;3.80;1.30;;;;;;;8.24;66.46;100653.26;219223;1256;139760;-66
2023/05/18 01:20:26;;;;;;;9.00;3.40;;;;;;;8.23;66.46;100654.06;219593;1254;140721;-69
2023/05/18 01:25:52;;;;;;;4.60;2.00;;;;;;;8.22;66.79;100659.86;218273;1257;139594;-68
2023/05/18 01:30:57;;;;;;;4.30;1.70;;;;;;;8.19;67.06;100669.52;218905;1254;139878;-69
2023/05/18 01:36:03;;;;;;;4.90;1.60;;;;;;;8.15;67.23;100673.05;218848;1255;140689;-67
2023/05/18 01:41:22;;;;;;;9.20;3.90;;;;;;;8.08;67.34;100665.90;219250;1254;141356;-68
2023/05/18 01:46:38;;;;;;;3.60;1.60;;;;;;;8.00;67.32;100665.02;218153;1254;140005;-66
2023/05/18 01:51:48;;;;;;;2.90;2.10;;;;;;;7.90;67.45;100665.23;218467;1254;140649;-66
2023/05/18 01:56:54;;;;;;;6.10;2.80;;;;;;;7.82;67.94;100666.73;219003;1254;140524;-66
2023/05/18 02:02:00;;;;;;;3.50;2.00;;;;;;;7.77;67.73;100671.83;218105;1254;139994;-66
2023/05/18 02:07:05;;;;;;;9.60;2.40;;;;;;;7.71;68.14;100671.78;219262;1254;139631;-65
2023/05/18 02:12:10;;;;;;;4.80;1.80;;;;;;;7.65;68.26;100682.15;218177;1254;140503;-66
2023/05/18 02:17:14;;;;;;;7.00;2.80;;;;;;;7.58;68.59;100682.42;218242;1254;140902;-64
2023/05/18 02:22:20;;;;;;;8.70;2.60;;;;;;;7.52;68.85;100684.74;218896;1254;139315;-65
2023/05/18 02:27:24;;;;;;;5.50;1.70;;;;;;;7.46;69.03;100693.45;219339;1254;139369;-65
2023/05/18 02:32:31;;;;;;;10.80;2.80;;;;;;;7.36;69.18;100696.80;218123;1254;139922;-64
2023/05/18 02:37:38;;;;;;;5.10;2.10;;;;;;;7.28;69.24;100703.31;218630;1258;139923;-67
2023/05/18 02:42:48;;;;;;;7.80;3.60;;;;;;;7.21;69.42;100708.29;218249;1258;139403;-66
2023/05/18 02:48:05;;;;;;;7.60;2.70;;;;;;;7.11;69.65;100709.98;217957;1254;139883;-66
2023/05/18 02:53:12;;;;;;;12.70;4.70;;;;;;;7.00;69.79;100717.86;218738;1254;140435;-66
2023/05/18 02:58:16;;;;;;;5.90;2.80;;;;;;;6.89;69.79;100725.40;220870;1254;140864;-66
2023/05/18 03:03:22;;;;;;;5.30;2.10;;;;;;;6.80;69.71;100731.69;220715;1254;141854;-66
2023/05/18 03:08:27;;;;;;;12.80;2.40;;;;;;;6.78;70.10;100735.81;220712;1254;141184;-67
2023/05/18 03:13:31;;;;;;;7.60;2.60;;;;;;;6.75;70.10;100745.78;220341;1255;141476;-64
2023/05/18 03:18:35;;;;;;;6.30;2.30;;;;;;;6.74;70.60;100746.79;220640;1254;139559;-64
2023/05/18 03:23:41;;;;;;;5.20;2.70;;;;;;;6.72;70.38;100749.38;218224;1254;620930;-64
2023/05/18 03:28:45;;;;;;;8.70;3.20;;;;;;;6.71;70.88;100751.99;218135;1254;140967;-64
2023/05/18 03:33:50;;;;;;;11.10;5.70;;;;;;;6.72;71.11;100758.56;219254;1254;139758;-67
2023/05/18 03:38:55;;;;;;;8.80;4.60;;;;;;;6.72;71.38;100760.52;218490;1254;140660;-63
2023/05/18 03:44:00;;;;;;;4.00;3.50;;;;;;;6.77;71.68;100762.02;219301;1254;139725;-64
2023/05/18 03:49:06;;;;;;;6.80;3.10;;;;;;;6.84;71.53;100762.77;218741;1258;140904;-65
2023/05/18 03:54:10;;;;;;;3.60;2.50;;;;;;;6.92;71.61;100764.80;218516;1257;139931;-66
2023/05/18 03:59:14;;;;;;;9.30;3.20;;;;;;;6.99;71.74;100767.29;218135;1258;139532;-65
2023/05/18 04:04:22;;;;;;;4.90;3.20;;;;;;;7.06;71.56;100771.11;218482;1254;140543;-65
2023/05/18 04:09:29;;;;;;;6.20;2.50;;;;;;;7.19;71.79;100774.77;218314;1255;140522;-66
2023/05/18 04:14:35;;;;;;;7.10;2.90;;;;;;;7.37;71.76;100776.67;217989;1259;139587;-66
2023/05/18 04:19:40;;;;;;;6.30;2.20;;;;;;;7.63;71.47;100784.20;218677;1254;140683;-66
2023/05/18 04:24:46;;;;;;;2.90;1.80;;;;;;;7.91;71.08;100790.36;219734;1254;141008;-67
2023/05/18 04:29:52;;;;;;;4.30;1.50;;;;;;;8.25;70.69;100788.10;218979;1257;139672;-68
2023/05/18 04:34:57;;;;;;;6.00;2.50;;;;;;;8.49;70.48;100785.59;218808;1254;139863;-66
2023/05/18 04:40:05;;;;;;;5.90;3.00;;;;;;;8.73;69.95;100784.98;220566;1254;139656;-66
2023/05/18 04:45:11;;;;;;;4.50;2.60;;;;;;;9.19;69.22;100784.75;218209;1254;140361;-67
2023/05/18 04:50:16;;;;;;;;;;;;;;;9.49;68.71;100791.67;219414;1254;141794;-67
2023/05/18 04:55:27;;;;;;;7.50;2.60;;;;;;;9.65;68.29;100796.00;218427;1258;126547;-67
2023/05/18 05:00:31;;;;;;;9.80;1.90;;;;;;;10.00;67.35;100796.59;220620;1256;140616;-68
2023/05/18 05:05:35;;;;;;;3.80;3.10;;;;;;;10.25;66.95;100799.23;218275;1254;140158;-68
2023/05/18 05:10:38;;;;;;;14.20;2.30;;;;;;;10.40;66.39;100804.92;219592;1254;140920;-68
2023/05/18 05:15:43;;;;;;;6.20;2.50;;;;;;;10.85;65.75;100803.77;219566;1254;140311;-66
2023/05/18 05:20:49;;;;;;;5.10;1.90;;;;;;;12.01;64.42;100798.86;219521;1255;141346;-64
2023/05/18 05:25:54;;;;;;;5.80;2.30;;;;;;;13.40;62.91;100798.09;218750;1254;141961;-68
2023/05/18 05:31:00;;;;;;;8.90;2.00;;;;;;;14.63;61.12;100796.54;218182;1257;140817;-67
2023/05/18 05:36:07;;;;;;;3.40;2.30;;;;;;;16.04;59.26;100799.81;219066;1254;139651;-67
2023/05/18 05:41:13;;;;;;;6.50;1.90;;;;;;;17.14;57.06;100799.16;218621;1254;140602;-67
2023/05/18 05:46:17;;;;;;;2.80;2.50;;;;;;;18.20;55.33;100799.31;218481;1255;230878;-66
2023/05/18 05:51:23;;;;;;;5.40;2.30;;;;;;;18.96;54.13;100802.74;218437;1254;139988;-65
2023/05/18 05:56:28;;;;;;;4.10;2.20;;;;;;;19.25;52.60;100804.26;218163;1254;139186;-66
2023/05/18 06:01:36;;;;;;;7.90;2.40;;;;;;;18.95;51.99;100804.16;218871;1259;140928;-66
2023/05/18 06:06:46;;;;;;;6.10;1.80;;;;;;;19.12;51.09;100806.48;218201;1260;140172;-65
2023/05/18 06:11:51;;;;;;;7.50;2.30;;;;;;;19.40;49.89;100809.71;218551;1254;139223;-67
2023/05/18 06:16:56;;;;;;;7.90;1.70;;;;;;;19.50;49.43;100810.23;218498;1254;139728;-67
2023/05/18 06:22:01;;;;;;;4.10;1.80;;;;;;;19.09;48.59;100812.86;219031;1254;139126;-66
2023/05/18 06:27:05;;;;;;;5.40;1.80;;;;;;;19.04;48.29;100814.02;219037;1255;140547;-65
2023/05/18 06:32:12;;;;;;;5.90;1.90;;;;;;;18.63;48.45;100809.23;218904;1254;139488;-65
2023/05/18 06:37:18;;;;;;;5.90;2.50;;;;;;;18.15;48.13;100810.95;220452;1258;139926;-65
2023/05/18 06:42:23;;;;;;;6.70;2.50;;;;;;;17.98;48.54;100812.77;220848;1254;139124;-66
2023/05/18 06:47:26;;;;;;;2.00;1.60;;;;;;;17.88;48.55;100821.31;220791;1254;140220;-67
2023/05/18 06:52:31;;;;;;;9.80;2.10;;;;;;;17.68;48.31;100822.84;220838;1258;139528;-66
2023/05/18 06:57:37;;;;;;;4.20;1.90;;;;;;;17.76;48.37;100833.86;220849;1255;140654;-67
2023/05/18 07:02:44;;;;;;;11.10;2.50;;;;;;;18.41;48.33;100834.77;220348;1257;140975;-68
2023/05/18 07:07:49;;;;;;;5.20;2.20;;;;;;;19.23;48.03;100835.55;220603;1254;139664;-69
2023/05/18 07:12:55;;;;;;;5.40;1.50;;;;;;;19.63;46.88;100836.49;218997;1259;139374;-68
2023/05/18 07:17:59;;;;;;;2.00;1.10;;;;;;;19.71;46.80;100835.60;218505;1260;140491;-67
2023/05/18 07:23:04;;;;;;;2.30;1.50;;;;;;;19.56;46.48;100833.17;218186;1259;139838;-68
2023/05/18 07:28:07;;;;;;;5.10;1.30;;;;;;;19.37;46.54;100838.46;218792;1254;139724;-69
2023/05/18 07:33:12;;;;;;;2.00;1.20;;;;;;;19.11;46.18;100836.27;217957;1258;140213;-66
2023/05/18 07:38:16;;;;;;;3.80;1.40;;;;;;;18.88;46.20;100838.56;218899;1257;139378;-66
2023/05/18 07:43:20;;;;;;;1.70;1.30;;;;;;;18.60;46.05;100838.11;217827;1257;140846;-66
2023/05/18 07:48:24;;;;;;;2.40;1.50;;;;;;;18.31;45.89;100843.77;218309;1257;141202;-66
2023/05/18 07:53:30;;;;;;;2.30;1.20;;;;;;;17.86;45.78;100847.45;218495;1257;139341;-67
2023/05/18 07:58:36;;;;;;;2.40;0.80;;;;;;;17.54;46.06;100846.26;218239;1258;140499;-66
2023/05/18 08:03:40;;;;;;;1.80;1.00;;;;;;;17.29;46.32;100848.50;218800;1258;139922;-63
2023/05/18 08:08:45;;;;;;;8.70;1.10;;;;;;;17.23;46.49;100845.84;217836;1257;139640;-64
2023/05/18 08:13:49;;;;;;;1.80;1.00;;;;;;;17.23;46.82;100847.45;217783;1260;139266;-65
2023/05/18 08:18:53;;;;;;;7.00;1.30;;;;;;;17.34;47.15;100854.98;218655;1257;139803;-66
2023/05/18 08:23:57;;;;;;;3.60;1.20;;;;;;;17.52;47.57;100853.66;217879;1257;139618;-68
2023/05/18 08:29:08;;;;;;;1.50;1.20;;;;;;;17.60;47.26;100854.23;219182;1257;223627;-67
2023/05/18 08:34:12;;;;;;;6.90;1.40;;;;;;;17.81;47.71;100856.80;219197;1259;139297;-66
2023/05/18 08:39:18;;;;;;;4.00;0.90;;;;;;;17.85;47.20;100864.39;219204;1257;139760;-68
2023/05/18 08:44:28;;;;;;;2.70;1.00;;;;;;;17.89;46.86;100864.41;220767;1258;139575;-67
2023/05/18 08:49:33;;;;;;;2.60;2.00;;;;;;;17.95;46.54;100862.27;220725;1257;139923;-67
2023/05/18 08:54:39;;;;;;;3.60;1.40;;;;;;;18.01;46.61;100857.52;218808;1259;140076;-68
2023/05/18 08:59:48;;;;;;;1.60;1.30;;;;;;;17.61;46.74;100857.33;220562;1257;140601;-68
2023/05/18 09:04:54;;;;;;;7.60;1.60;;;;;;;17.28;46.96;100852.65;220534;1257;139896;-66
2023/05/18 09:10:00;;;;;;;;;;;;;;;17.21;47.57;100851.85;219578;1258;140052;-66
2023/05/18 09:15:05;;;;;;;1.80;1.60;;;;;;;17.14;48.01;100846.54;218987;1260;127386;-67
2023/05/18 09:20:14;;;;;;;5.10;1.30;;;;;;;16.98;48.18;100848.06;218012;1257;139076;-67
2023/05/18 09:25:22;;;;;;;3.40;1.90;;;;;;;16.91;48.58;100847.11;218375;1257;140118;-66
2023/05/18 09:30:29;;;;;;;3.10;1.30;;;;;;;16.98;48.28;100844.46;219507;1259;139984;-66
2023/05/18 09:35:36;;;;;;;2.80;1.30;;;;;;;17.04;48.60;100842.08;217827;1257;139609;-67
2023/05/18 09:40:45;;;;;;;2.30;1.10;;;;;;;16.89;48.57;100847.67;218483;1257;139244;-67
2023/05/18 09:45:50;;;;;;;0.90;0.90;;;;;;;16.77;48.87;100849.58;218252;1258;139474;-66
2023/05/18 09:50:58;;;;;;;3.60;1.20;;;;;;;16.72;49.22;100853.44;218551;1257;152596;-67
2023/05/18 09:56:10;;;;;;;1.40;0.80;;;;;;;16.67;48.49;100853.18;217790;1257;139870;-67
2023/05/18 10:01:18;;;;;;;4.60;1.00;;;;;;;16.56;48.46;100861.06;217908;1260;139176;-67
2023/05/18 10:06:26;;;;;;;3.10;0.90;;;;;;;16.56;48.47;100854.94;218106;1256;144347;-66
2023/05/18 10:11:32;;;;;;;1.50;1.30;;;;;;;16.63;48.54;100851.50;219308;1257;139680;-68
2023/05/18 10:16:36;;;;;;;2.20;1.00;;;;;;;16.70;48.25;100850.50;217964;1257;140261;-67
2023/05/18 10:21:43;;;;;;;2.70;1.80;;;;;;;16.56;48.32;100850.31;218044;1257;139924;-66
2023/05/18 10:26:49;;;;;;;0.70;0.70;;;;;;;16.59;49.03;100845.17;218918;1256;141284;-67
2023/05/18 10:32:02;;;;;;;0.90;0.90;;;;;;;16.63;48.56;100852.63;218214;1259;139037;-67
2023/05/18 10:37:13;;;;;;;2.50;1.00;;;;;;;16.50;48.25;100852.75;219924;1257;140213;-67
2023/05/18 10:42:19;;;;;;;3.20;1.40;;;;;;;16.51;48.74;100852.23;217939;1258;140494;-68
2023/05/18 10:47:27;;;;;;;;;;;;;;;16.59;48.58;100850.56;218896;1257;139699;-68
2023/05/18 10:52:35;;;;;;;1.40;0.70;;;;;;;16.45;48.22;100851.02;220965;1256;126127;-69
2023/05/18 10:57:44;;;;;;;1.80;1.10;;;;;;;16.31;48.38;100851.65;219016;1258;141359;-64
2023/05/18 11:02:50;;;;;;;1.00;1.00;;;;;;;16.34;48.77;100844.92;219291;1258;139879;-63
2023/05/18 11:08:05;;;;;;;;;;;;;;;16.28;48.34;100849.35;220581;1256;140479;-65
2023/05/18 11:13:12;;;;;;;1.70;0.70;;;;;;;16.16;48.73;100850.72;220614;1257;125673;-71
2023/05/18 11:18:17;;;;;;;1.20;0.70;;;;;;;16.06;48.37;100848.88;219136;1255;139159;-71
2023/05/18 11:23:23;;;;;;;0.70;0.60;;;;;;;16.07;48.85;100846.70;218222;1260;139410;-67
2023/05/18 11:28:28;;;;;;;0.80;0.60;;;;;;;16.19;48.86;100843.66;218575;1257;139691;-66
2023/05/18 11:33:35;;;;;;;0.60;0.50;;;;;;;16.21;48.83;100842.08;218964;1257;152221;-66
2023/05/18 11:38:47;;;;;;;0.80;0.70;;;;;;;16.20;48.60;100850.19;219088;1257;140455;-63
2023/05/18 11:44:19;;;;;;;1.10;1.00;;;;;;;16.36;49.12;100847.64;218735;1257;140809;-67
2023/05/18 11:49:46;;;;;;;1.10;1.00;;;;;;;16.45;48.85;100849.46;217888;1256;140606;-65
2023/05/18 11:54:58;;;;;;;1.00;0.50;;;;;;;16.43;48.52;100848.14;217924;1259;140110;-67
2023/05/18 12:00:10;;;;;;;2.90;0.90;;;;;;;16.39;48.58;100849.15;219385;1256;139776;-65
2023/05/18 12:05:16;;;;;;;1.00;1.00;;;;;;;16.31;48.76;100852.98;217975;1257;139809;-67
2023/05/18 12:10:23;;;;;;;0.60;0.60;;;;;;;16.18;48.98;100854.66;219512;1258;140596;-65
2023/05/18 12:15:36;;;;;;;0.80;0.80;;;;;;;15.99;48.82;100859.67;217976;1257;222697;-65
2023/05/18 12:20:42;;;;;;;1.20;0.80;;;;;;;15.97;49.14;100858.73;218268;1256;139502;-66
2023/05/18 12:25:49;;;;;;;3.20;1.30;;;;;;;15.93;48.89;100863.94;219488;1256;140574;-67
2023/05/18 12:30:58;;;;;;;4.00;1.10;;;;;;;15.84;49.02;100860.19;218998;1256;139147;-66
2023/05/18 12:36:09;;;;;;;1.60;1.40;;;;;;;15.78;49.05;100859.48;220640;1255;139422;-66
2023/05/18 12:41:22;;;;;;;1.00;0.90;;;;;;;15.66;49.53;100855.66;220380;1256;140089;-65
2023/05/18 12:46:29;;;;;;;1.70;0.70;;;;;;;15.59;49.23;100852.50;219953;1256;140572;-67
2023/05/18 12:51:41;;;;;;;1.20;1.00;;;;;;;15.59;49.61;100849.98;220141;1256;224207;-65
2023/05/18 12:57:04;;;;;;;2.50;1.50;;;;;;;15.62;49.42;100853.74;219593;1255;140209;-67
2023/05/18 13:02:35;;;;;;;1.90;0.90;;;;;;;15.62;49.70;100849.81;220004;1256;140261;-67
2023/05/18 13:07:45;;;;;;;2.80;1.40;;;;;;;15.72;50.34;100854.70;219105;1257;140251;-67
2023/05/18 13:12:55;;;;;;;1.60;1.40;;;;;;;15.81;50.42;100851.54;218831;1256;139889;-67
2023/05/18 13:18:10;;;;;;;1.30;0.90;;;;;;;15.88;50.76;100846.44;219926;1255;140525;-68
2023/05/18 13:23:21;;;;;;;2.80;1.30;;;;;;;15.93;50.61;100844.17;218572;1257;139565;-67
2023/05/18 13:28:28;;;;;;;1.90;1.20;;;;;;;15.97;50.70;100844.31;218327;1259;139585;-66
2023/05/18 13:33:33;;;;;;;3.00;2.70;;;;;;;15.93;50.51;100841.81;219309;1255;139659;-67
2023/05/18 13:38:41;;;;;;;1.80;1.10;;;;;;;15.85;50.57;100841.11;218429;1256;139205;-67
2023/05/18 13:43:47;;;;;;;6.80;1.60;;;;;;;15.75;50.76;100837.92;218838;1257;139726;-68
2023/05/18 13:48:53;;;;;;;2.00;1.20;;;;;;;15.74;50.97;100836.25;218164;1257;140902;-68
2023/05/18 13:54:00;;;;;;;1.00;1.00;;;;;;;15.66;50.87;100838.29;218337;1254;139879;-68
2023/05/18 13:59:07;;;;;;;1.10;0.80;;;;;;;15.51;50.85;100844.08;218204;1257;139937;-67
2023/05/18 14:04:21;;;;;;;2.90;1.50;;;;;;;15.41;50.88;100845.90;218706;1255;139208;-68
2023/05/18 14:09:29;;;;;;;0.60;0.60;;;;;;;15.27;51.19;100844.78;218169;1256;139509;-67
2023/05/18 14:14:35;;;;;;;0.90;0.90;;;;;;;15.14;51.09;100843.77;218849;1257;140818;-67
2023/05/18 14:19:41;;;;;;;3.00;1.20;;;;;;;15.02;51.22;100843.66;218877;1256;234626;-67
2023/05/18 14:24:49;;;;;;;2.00;0.80;;;;;;;14.99;51.43;100840.98;218417;1256;139532;-68
2023/05/18 14:29:55;;;;;;;1.70;1.30;;;;;;;14.99;51.87;100839.42;220209;1255;139460;-67
2023/05/18 14:35:03;;;;;;;0.60;0.60;;;;;;;15.02;52.54;100840.56;219678;1255;139811;-66
2023/05/18 14:40:10;;;;;;;2.50;1.40;;;;;;;15.06;52.12;100841.29;220728;1256;141090;-67
2023/05/18 14:45:16;;;;;;;3.30;1.00;;;;;;;15.04;52.03;100838.30;220617;1256;139773;-67
2023/05/18 14:50:21;;;;;;;2.40;1.10;;;;;;;15.10;52.57;100833.11;220627;1254;140181;-67
2023/05/18 14:55:26;;;;;;;0.70;0.70;;;;;;;15.16;52.53;100832.91;220637;1255;140191;-67
2023/05/18 15:00:32;;;;;;;5.20;1.20;;;;;;;15.16;52.22;100830.71;219959;1256;139943;-67
2023/05/18 15:05:38;;;;;;;6.20;1.10;;;;;;;15.20;52.38;100827.45;218779;1256;139731;-67
2023/05/18 15:10:44;;;;;;;4.20;0.90;;;;;;;15.10;52.22;100828.52;218384;1257;139198;-65
2023/05/18 15:15:50;;;;;;;3.00;1.40;;;;;;;14.99;52.24;100829.95;218848;1256;139391;-66
2023/05/18 15:20:55;;;;;;;5.70;1.30;;;;;;;14.94;52.25;100831.13;218823;1256;139479;-67
2023/05/18 15:26:01;;;;;;;1.50;1.10;;;;;;;14.85;52.37;100833.70;217510;1255;740287;-65
2023/05/18 15:31:08;;;;;;;0.60;0.60;;;;;;;14.79;52.79;100834.70;217710;1257;139224;-66
2023/05/18 15:36:13;;;;;;;1.30;0.80;;;;;;;14.77;53.02;100829.63;219212;1256;139646;-66
2023/05/18 15:41:18;;;;;;;1.50;1.00;;;;;;;14.71;52.95;100829.11;218500;1257;139466;-65
2023/05/18 15:46:23;;;;;;;3.20;1.60;;;;;;;14.60;53.18;100829.63;218540;1254;140699;-65
2023/05/18 15:51:29;;;;;;;1.10;1.00;;;;;;;14.56;53.76;100832.85;218241;1255;140335;-67
2023/05/18 15:56:34;;;;;;;1.80;1.10;;;;;;;14.45;53.32;100832.92;218724;1255;139885;-66
2023/05/18 16:01:40;;;;;;;4.80;1.30;;;;;;;14.33;53.59;100829.71;218324;1256;139871;-66
2023/05/18 16:06:44;;;;;;;1.10;1.00;;;;;;;14.28;53.66;100832.83;217954;1258;139027;-66
2023/05/18 16:11:50;;;;;;;1.10;1.10;;;;;;;14.28;53.96;100824.80;219331;1255;139712;-66
2023/05/18 16:16:55;;;;;;;0.90;0.70;;;;;;;14.25;54.26;100833.14;217787;1259;140202;-66
2023/05/18 16:22:00;;;;;;;1.60;0.80;;;;;;;14.15;54.20;100833.42;218100;1256;141485;-65
2023/05/18 16:27:05;;;;;;;1.90;0.60;;;;;;;14.10;54.89;100831.59;219632;1255;140038;-65
2023/05/18 16:32:09;;;;;;;2.50;0.90;;;;;;;14.06;54.77;100832.61;219982;1255;139338;-64
2023/05/18 16:37:12;;;;;;;0.60;0.60;;;;;;;14.03;55.07;100830.63;218527;1256;140036;-65
2023/05/18 16:42:17;;;;;;;10.60;1.50;;;;;;;14.00;55.34;100832.31;220585;1255;140304;-66
2023/05/18 16:47:21;;;;;;;1.10;1.00;;;;;;;13.95;55.44;100833.63;220589;1256;140745;-67
2023/05/18 16:52:26;;;;;;;1.60;1.10;;;;;;;13.92;55.59;100834.62;220397;1255;139236;-66
2023/05/18 16:57:32;;;;;;;1.40;1.20;;;;;;;13.91;55.68;100835.91;218984;1255;139327;-64
2023/05/18 17:02:38;;;;;;;1.00;1.00;;;;;;;13.87;55.65;100839.31;218599;1257;141665;-65
2023/05/18 17:07:45;;;;;;;0.90;0.70;;;;;;;13.81;56.22;100842.03;219100;1256;140301;-66
2023/05/18 17:12:50;;;;;;;2.20;1.00;;;;;;;13.76;57.04;100841.28;219917;1256;140000;-65
2023/05/18 17:17:56;;;;;;;2.90;0.70;;;;;;;13.71;57.97;100841.66;218007;1256;139827;-65
2023/05/18 17:23:01;;;;;;;0.60;0.60;;;;;;;13.62;58.43;100842.20;218769;1256;211380;-64
2023/05/18 17:28:07;;;;;;;1.60;1.20;;;;;;;13.51;59.27;100840.73;218508;1259;140222;-63
2023/05/18 17:33:12;;;;;;;0.80;0.80;;;;;;;13.40;59.81;100845.91;218552;1257;141315;-66
2023/05/18 17:38:21;;;;;;;0.70;0.70;;;;;;;13.27;60.19;100848.14;218097;1259;139513;-66
2023/05/18 17:43:26;;;;;;;0.90;0.90;;;;;;;13.17;60.63;100849.64;218537;1256;139626;-66
2023/05/18 17:48:31;;;;;;;2.80;1.80;;;;;;;13.08;61.15;100852.59;218792;1256;141771;-66
2023/05/18 17:53:40;;;;;;;3.70;1.60;;;;;;;13.00;61.57;100853.70;217905;1259;140034;-68
2023/05/18 17:58:46;;;;;;;2.60;1.60;;;;;;;12.92;62.04;100859.75;218017;1256;140100;-67
2023/05/18 18:03:51;;;;;;;4.50;2.60;;;;;;;12.83;62.30;100855.33;219178;1256;141108;-65
2023/05/18 18:08:57;;;;;;;5.50;2.90;;;;;;;12.67;62.83;100858.58;217611;1256;141029;-65
2023/05/18 18:14:03;;;;;;;4.50;3.20;;;;;;;12.53;63.54;100858.30;219445;1255;139899;-66
2023/05/18 18:19:10;;;;;;;7.00;3.30;;;;;;;12.49;64.34;100861.23;217929;1255;139969;-65
2023/05/18 18:24:15;;;;;;;5.30;2.70;;;;;;;12.41;64.59;100857.63;219917;1256;140702;-66
2023/05/18 18:29:24;;;;;;;4.50;2.70;;;;;;;12.33;64.85;100859.64;218586;1256;139960;-66
2023/05/18 18:34:31;;;;;;;2.40;2.00;;;;;;;12.23;65.34;100860.79;220708;1256;140646;-66
2023/05/18 18:39:36;;;;;;;5.80;2.60;;;;;;;12.24;65.88;100860.37;220079;1256;139821;-68
2023/05/18 18:44:42;;;;;;;2.60;2.00;;;;;;;12.22;66.18;100862.19;219056;1257;142793;-74
2023/05/18 18:49:48;;;;;;;2.60;1.80;;;;;;;12.12;66.52;100864.79;220382;1255;141257;-68
2023/05/18 18:54:52;;;;;;;8.20;2.90;;;;;;;12.00;67.11;100874.86;219198;1256;140479;-67
2023/05/18 18:59:57;;;;;;;4.60;1.80;;;;;;;11.96;67.64;100878.78;219986;1256;141765;-67
2023/05/18 19:05:04;;;;;;;3.60;2.40;;;;;;;11.94;68.18;100879.46;219287;1256;141783;-64
2023/05/18 19:10:10;;;;;;;3.90;2.00;;;;;;;11.94;68.45;100882.34;218797;1256;141402;-63
2023/05/18 19:15:15;;;;;;;6.10;2.30;;;;;;;11.91;68.77;100879.91;217853;1256;141023;-63
2023/05/18 19:20:21;;;;;;;2.50;2.20;;;;;;;11.89;69.27;100878.04;217869;1259;141932;-67
2023/05/18 19:25:28;;;;;;;5.10;2.00;;;;;;;11.85;69.39;100882.48;217862;1259;140425;-64
2023/05/18 19:30:35;;;;;;;5.00;3.10;;;;;;;11.72;69.32;100885.61;218586;1256;140074;-64
2023/05/18 19:35:39;;;;;;;5.70;3.10;;;;;;;11.65;69.77;100888.35;218283;1259;139901;-64
2023/05/18 19:40:43;;;;;;;14.60;4.00;;;;;;;11.57;69.81;100886.88;217866;1259;140218;-64
2023/05/18 19:45:48;;;;;;;7.00;3.80;;;;;;;11.46;70.33;100886.27;217880;1257;140000;-67
2023/05/18 19:50:53;;;;;;;9.40;6.60;;;;;;;11.44;70.86;100888.66;218009;1257;140782;-68
2023/05/18 19:55:58;;;;;;;11.60;6.00;;;;;;;11.44;71.21;100886.52;219271;1256;140352;-64
2023/05/18 20:01:03;;;;;;;10.40;5.30;;;;;;;11.44;71.32;100885.98;218023;1255;140343;-67
2023/05/18 20:06:09;;;;;;;13.10;9.10;;;;;;;11.42;71.55;100888.02;218774;1258;140493;-69
2023/05/18 20:11:17;;;;;;;8.40;5.20;;;;;;;11.40;71.38;100896.69;218704;1257;143628;-64
2023/05/18 20:16:22;;;;;;;10.50;5.40;;;;;;;11.33;71.65;100896.63;220658;1256;141416;-67
2023/05/18 20:21:27;;;;;;;7.50;4.80;;;;;;;11.29;71.49;100903.23;220380;1256;140751;-64
2023/05/18 20:26:32;;;;;;;5.10;3.70;;;;;;;11.26;71.88;100903.91;218458;1257;140776;-67
2023/05/18 20:31:37;;;;;;;6.10;4.50;;;;;;;11.25;71.95;100904.48;220521;1254;140666;-65
2023/05/18 20:36:42;;;;;;;11.60;4.80;;;;;;;11.25;72.35;100905.18;220503;1255;144855;-69
2023/05/18 20:41:49;;;;;;;6.60;4.80;;;;;;;11.25;72.18;100907.56;219985;1255;141927;-67
2023/05/18 20:46:54;;;;;;;6.30;5.70;;;;;;;11.22;72.35;100907.81;220003;1256;140995;-65
2023/05/18 20:51:58;;;;;;;6.50;4.90;;;;;;;11.18;72.47;100909.21;219760;1255;140427;-65
2023/05/18 20:57:03;;;;;;;8.60;5.90;;;;;;;11.18;72.47;100909.02;218040;1257;139902;-64
2023/05/18 21:02:09;;;;;;;7.80;6.00;;;;;;;11.18;72.68;100915.98;219216;1256;139852;-66
2023/05/18 21:07:15;;;;;;;5.30;4.20;;;;;;;11.17;72.69;100915.95;218462;1255;141405;-68
2023/05/18 21:12:19;;;;;;;5.40;4.70;;;;;;;11.13;72.71;100916.08;218281;1257;140468;-68
2023/05/18 21:17:28;;;;;;;7.40;4.70;;;;;;;11.09;72.64;100918.42;219100;1256;140459;-70
2023/05/18 21:22:33;;;;;;;6.60;5.20;;;;;;;11.06;72.76;100921.92;218310;1257;140197;-69
2023/05/18 21:27:40;;;;;;;6.60;4.30;;;;;;;11.03;72.69;100923.70;217922;1257;140826;-68
2023/05/18 21:32:46;;;;;;;6.50;4.10;;;;;;;10.98;72.96;100926.39;218005;1256;140164;-72
2023/05/18 21:37:52;;;;;;;9.10;4.80;;;;;;;10.92;73.09;100922.88;218652;1259;140847;-68
2023/05/18 21:42:57;;;;;;;7.80;5.20;;;;;;;10.91;73.28;100925.86;218899;1259;141367;-67
2023/05/18 21:48:01;;;;;;;6.40;3.90;;;;;;;10.86;73.25;100930.88;217996;1257;140359;-66
2023/05/18 21:53:06;;;;;;;7.70;5.00;;;;;;;10.81;73.46;100935.44;218002;1257;141905;-65
2023/05/18 21:58:10;;;;;;;5.70;4.20;;;;;;;10.78;73.83;100942.04;218692;1255;140061;-65
2023/05/18 22:03:16;;;;;;;4.50;4.10;;;;;;;10.75;74.20;100942.16;218040;1255;141112;-65
2023/05/18 22:08:21;;;;;;;5.00;4.50;;;;;;;10.74;74.33;100943.15;218438;1257;140220;-65
2023/05/18 22:13:25;;;;;;;5.90;4.40;;;;;;;10.74;74.71;100946.14;219494;1259;140880;-66
2023/05/18 22:18:30;;;;;;;7.70;5.20;;;;;;;10.73;74.72;100948.97;219389;1257;139968;-65
2023/05/18 22:23:36;;;;;;;3.90;3.50;;;;;;;10.69;74.67;100951.02;218606;1259;140884;-65
2023/05/18 22:28:41;;;;;;;3.40;3.00;;;;;;;10.56;74.73;100952.85;218118;1255;139947;-66
2023/05/18 22:33:46;;;;;;;5.90;3.70;;;;;;;10.45;74.64;100952.74;218673;1257;141012;-66
2023/05/18 22:38:51;;;;;;;4.30;3.20;;;;;;;10.41;74.77;100950.86;219477;1257;141807;-66
2023/05/18 22:43:56;;;;;;;3.60;3.30;;;;;;;10.43;74.91;100949.83;220594;1256;140235;-67
2023/05/18 22:49:00;;;;;;;5.40;3.50;;;;;;;10.48;75.24;100946.68;219883;1256;140117;-67
2023/05/18 22:54:05;;;;;;;3.70;3.30;;;;;;;10.51;75.26;100944.80;219512;1256;140850;-66
2023/05/18 22:59:10;;;;;;;6.50;4.70;;;;;;;10.48;75.26;100951.56;219325;1257;140502;-69
2023/05/18 23:04:18;;;;;;;7.10;2.90;;;;;;;10.48;75.33;100952.70;219039;1257;140963;-66
2023/05/18 23:09:25;;;;;;;6.00;3.60;;;;;;;10.47;75.45;100949.42;217803;1257;140785;-66
2023/05/18 23:14:32;;;;;;;5.20;4.70;;;;;;;10.47;75.76;100944.34;218720;1259;140408;-66
2023/05/18 23:19:38;;;;;;;7.50;4.30;;;;;;;10.45;75.88;100942.74;218204;1257;139715;-67